sensor_id;sensor_type;location;lat;lon;timestamp;P1;durP1;ratioP1;P2;durP2;ratioP2
12114;SDS011;6121;49.810;6.418;2023-06-22T00:00:14;5.10;;;4.72;;
12114;SDS011;6121;49.810;6.418;2023-06-22T00:02:40;5.27;;;4.87;;
12114;SDS011;6121;49.810;6.418;2023-06-22T00:05:06;4.85;;;4.55;;
12114;SDS011;6121;49.810;6.418;2023-06-22T00:07:32;5.10;;;4.75;;
12114;SDS011;6121;49.810;6.418;2023-06-22T00:09:57;5.47;;;5.07;;
12114;SDS011;6121;49.810;6.418;2023-06-22T00:12:23;5.27;;;4.87;;
12114;SDS011;6121;49.810;6.418;2023-06-22T00:14:49;4.57;;;4.28;;
12114;SDS011;6121;49.810;6.418;2023-06-22T00:17:15;5.23;;;4.83;;
12114;SDS011;6121;49.810;6.418;2023-06-22T00:19:41;4.70;;;4.40;;
12114;SDS011;6121;49.810;6.418;2023-06-22T00:22:06;5.40;;;5.00;;
12114;SDS011;6121;49.810;6.418;2023-06-22T00:24:32;4.97;;;4.67;;
12114;SDS011;6121;49.810;6.418;2023-06-22T00:26:58;5.43;;;5.03;;
12114;SDS011;6121;49.810;6.418;2023-06-22T00:29:24;4.93;;;4.57;;
12114;SDS011;6121;49.810;6.418;2023-06-22T00:31:49;4.97;;;4.67;;
12114;SDS011;6121;49.810;6.418;2023-06-22T00:34:15;4.60;;;4.30;;
12114;SDS011;6121;49.810;6.418;2023-06-22T00:36:42;5.10;;;4.70;;
12114;SDS011;6121;49.810;6.418;2023-06-22T00:39:08;6.05;;;5.65;;
12114;SDS011;6121;49.810;6.418;2023-06-22T00:41:33;5.60;;;5.20;;
12114;SDS011;6121;49.810;6.418;2023-06-22T00:43:59;5.10;;;4.73;;
12114;SDS011;6121;49.810;6.418;2023-06-22T00:46:25;4.75;;;4.45;;
12114;SDS011;6121;49.810;6.418;2023-06-22T00:48:51;4.97;;;4.68;;
12114;SDS011;6121;49.810;6.418;2023-06-22T00:51:17;4.97;;;4.68;;
12114;SDS011;6121;49.810;6.418;2023-06-22T00:53:49;6.07;;;5.60;;
12114;SDS011;6121;49.810;6.418;2023-06-22T00:56:17;5.18;;;4.78;;
12114;SDS011;6121;49.810;6.418;2023-06-22T00:58:45;5.53;;;5.13;;
12114;SDS011;6121;49.810;6.418;2023-06-22T01:01:12;5.38;;;4.97;;
12114;SDS011;6121;49.810;6.418;2023-06-22T01:03:39;5.20;;;4.80;;
12114;SDS011;6121;49.810;6.418;2023-06-22T01:06:07;5.22;;;4.82;;
12114;SDS011;6121;49.810;6.418;2023-06-22T01:09:06;5.45;;;5.05;;
12114;SDS011;6121;49.810;6.418;2023-06-22T01:11:41;5.38;;;4.97;;
12114;SDS011;6121;49.810;6.418;2023-06-22T01:14:17;5.10;;;4.70;;
12114;SDS011;6121;49.810;6.418;2023-06-22T01:16:49;5.10;;;4.70;;
12114;SDS011;6121;49.810;6.418;2023-06-22T01:19:20;5.18;;;4.78;;
12114;SDS011;6121;49.810;6.418;2023-06-22T01:22:07;6.00;;;5.60;;
12114;SDS011;6121;49.810;6.418;2023-06-22T01:27:26;5.47;;;5.07;;
12114;SDS011;6121;49.810;6.418;2023-06-22T01:30:02;5.05;;;4.70;;
12114;SDS011;6121;49.810;6.418;2023-06-22T01:32:34;5.15;;;4.78;;
12114;SDS011;6121;49.810;6.418;2023-06-22T01:35:01;5.32;;;4.93;;
12114;SDS011;6121;49.810;6.418;2023-06-22T01:37:30;6.50;;;6.00;;
12114;SDS011;6121;49.810;6.418;2023-06-22T01:39:58;6.28;;;5.85;;
12114;SDS011;6121;49.810;6.418;2023-06-22T01:42:24;6.40;;;5.90;;
12114;SDS011;6121;49.810;6.418;2023-06-22T01:44:53;6.15;;;5.75;;
12114;SDS011;6121;49.810;6.418;2023-06-22T01:47:20;6.50;;;6.00;;
12114;SDS011;6121;49.810;6.418;2023-06-22T01:49:47;6.13;;;5.72;;
12114;SDS011;6121;49.810;6.418;2023-06-22T01:52:15;6.65;;;6.15;;
12114;SDS011;6121;49.810;6.418;2023-06-22T01:54:41;5.90;;;5.50;;
12114;SDS011;6121;49.810;6.418;2023-06-22T01:57:07;6.32;;;5.85;;
12114;SDS011;6121;49.810;6.418;2023-06-22T01:59:37;6.85;;;6.35;;
12114;SDS011;6121;49.810;6.418;2023-06-22T02:02:19;6.10;;;5.70;;
12114;SDS011;6121;49.810;6.418;2023-06-22T02:04:55;6.00;;;5.60;;
12114;SDS011;6121;49.810;6.418;2023-06-22T02:07:25;6.45;;;5.95;;
12114;SDS011;6121;49.810;6.418;2023-06-22T02:09:55;7.10;;;6.60;;
12114;SDS011;6121;49.810;6.418;2023-06-22T02:12:23;6.32;;;5.82;;
12114;SDS011;6121;49.810;6.418;2023-06-22T02:14:52;5.70;;;5.30;;
12114;SDS011;6121;49.810;6.418;2023-06-22T02:17:19;6.47;;;5.97;;
12114;SDS011;6121;49.810;6.418;2023-06-22T02:19:45;7.15;;;6.65;;
12114;SDS011;6121;49.810;6.418;2023-06-22T02:22:11;6.10;;;5.70;;
12114;SDS011;6121;49.810;6.418;2023-06-22T02:24:38;5.85;;;5.45;;
12114;SDS011;6121;49.810;6.418;2023-06-22T02:27:04;6.13;;;5.70;;
12114;SDS011;6121;49.810;6.418;2023-06-22T02:29:32;6.13;;;5.70;;
12114;SDS011;6121;49.810;6.418;2023-06-22T02:31:58;6.18;;;5.78;;
12114;SDS011;6121;49.810;6.418;2023-06-22T02:34:24;5.72;;;5.32;;
12114;SDS011;6121;49.810;6.418;2023-06-22T02:36:50;6.05;;;5.65;;
12114;SDS011;6121;49.810;6.418;2023-06-22T02:39:23;6.20;;;5.78;;
12114;SDS011;6121;49.810;6.418;2023-06-22T02:41:50;6.03;;;5.63;;
12114;SDS011;6121;49.810;6.418;2023-06-22T02:44:17;5.80;;;5.40;;
12114;SDS011;6121;49.810;6.418;2023-06-22T02:46:43;6.13;;;5.73;;
12114;SDS011;6121;49.810;6.418;2023-06-22T02:49:10;6.00;;;5.60;;
12114;SDS011;6121;49.810;6.418;2023-06-22T02:51:38;5.93;;;5.53;;
12114;SDS011;6121;49.810;6.418;2023-06-22T02:54:06;6.97;;;6.47;;
12114;SDS011;6121;49.810;6.418;2023-06-22T02:56:32;6.57;;;6.07;;
12114;SDS011;6121;49.810;6.418;2023-06-22T02:59:00;6.40;;;5.93;;
12114;SDS011;6121;49.810;6.418;2023-06-22T03:01:28;5.95;;;5.55;;
12114;SDS011;6121;49.810;6.418;2023-06-22T03:03:56;6.20;;;5.70;;
12114;SDS011;6121;49.810;6.418;2023-06-22T03:06:22;6.10;;;5.60;;
12114;SDS011;6121;49.810;6.418;2023-06-22T03:08:51;6.80;;;6.30;;
12114;SDS011;6121;49.810;6.418;2023-06-22T03:11:17;6.57;;;6.07;;
12114;SDS011;6121;49.810;6.418;2023-06-22T03:13:43;6.27;;;5.77;;
12114;SDS011;6121;49.810;6.418;2023-06-22T03:16:11;6.10;;;5.70;;
12114;SDS011;6121;49.810;6.418;2023-06-22T03:18:37;6.33;;;5.83;;
12114;SDS011;6121;49.810;6.418;2023-06-22T03:21:03;6.55;;;6.05;;
12114;SDS011;6121;49.810;6.418;2023-06-22T03:23:30;6.30;;;5.80;;
12114;SDS011;6121;49.810;6.418;2023-06-22T03:25:56;6.38;;;5.88;;
12114;SDS011;6121;49.810;6.418;2023-06-22T03:28:22;6.18;;;5.70;;
12114;SDS011;6121;49.810;6.418;2023-06-22T03:30:48;7.70;;;7.10;;
12114;SDS011;6121;49.810;6.418;2023-06-22T03:33:16;6.00;;;5.60;;
12114;SDS011;6121;49.810;6.418;2023-06-22T03:35:41;6.13;;;5.70;;
12114;SDS011;6121;49.810;6.418;2023-06-22T03:38:07;6.00;;;5.60;;
12114;SDS011;6121;49.810;6.418;2023-06-22T03:40:33;6.22;;;5.80;;
12114;SDS011;6121;49.810;6.418;2023-06-22T03:42:59;6.75;;;6.25;;
12114;SDS011;6121;49.810;6.418;2023-06-22T03:45:25;6.30;;;5.80;;
12114;SDS011;6121;49.810;6.418;2023-06-22T03:47:51;6.30;;;5.80;;
12114;SDS011;6121;49.810;6.418;2023-06-22T03:50:17;6.38;;;5.88;;
12114;SDS011;6121;49.810;6.418;2023-06-22T03:52:45;5.90;;;5.50;;
12114;SDS011;6121;49.810;6.418;2023-06-22T03:55:12;7.47;;;6.90;;
12114;SDS011;6121;49.810;6.418;2023-06-22T03:57:38;6.20;;;5.80;;
12114;SDS011;6121;49.810;6.418;2023-06-22T04:00:03;6.60;;;6.10;;
12114;SDS011;6121;49.810;6.418;2023-06-22T04:02:41;5.90;;;5.50;;
12114;SDS011;6121;49.810;6.418;2023-06-22T04:05:08;7.32;;;6.82;;
12114;SDS011;6121;49.810;6.418;2023-06-22T04:07:34;6.53;;;6.03;;
12114;SDS011;6121;49.810;6.418;2023-06-22T04:10:03;6.13;;;5.68;;
12114;SDS011;6121;49.810;6.418;2023-06-22T04:12:29;6.00;;;5.60;;
12114;SDS011;6121;49.810;6.418;2023-06-22T04:14:55;5.90;;;5.50;;
12114;SDS011;6121;49.810;6.418;2023-06-22T04:17:21;8.10;;;7.50;;
12114;SDS011;6121;49.810;6.418;2023-06-22T04:19:47;5.50;;;5.10;;
12114;SDS011;6121;49.810;6.418;2023-06-22T04:22:12;6.20;;;5.70;;
12114;SDS011;6121;49.810;6.418;2023-06-22T04:24:38;5.75;;;5.35;;
12114;SDS011;6121;49.810;6.418;2023-06-22T04:27:04;5.88;;;5.47;;
12114;SDS011;6121;49.810;6.418;2023-06-22T04:29:30;5.65;;;5.25;;
12114;SDS011;6121;49.810;6.418;2023-06-22T04:31:56;6.33;;;5.83;;
12114;SDS011;6121;49.810;6.418;2023-06-22T04:34:28;6.40;;;5.90;;
12114;SDS011;6121;49.810;6.418;2023-06-22T04:36:54;5.78;;;5.38;;
12114;SDS011;6121;49.810;6.418;2023-06-22T04:39:20;6.25;;;5.75;;
12114;SDS011;6121;49.810;6.418;2023-06-22T04:41:46;6.43;;;5.93;;
12114;SDS011;6121;49.810;6.418;2023-06-22T04:44:13;6.03;;;5.63;;
12114;SDS011;6121;49.810;6.418;2023-06-22T04:46:51;5.75;;;5.35;;
12114;SDS011;6121;49.810;6.418;2023-06-22T04:49:29;6.07;;;5.67;;
12114;SDS011;6121;49.810;6.418;2023-06-22T04:52:00;6.07;;;5.68;;
12114;SDS011;6121;49.810;6.418;2023-06-22T04:54:26;5.57;;;5.18;;
12114;SDS011;6121;49.810;6.418;2023-06-22T04:56:52;6.05;;;5.65;;
12114;SDS011;6121;49.810;6.418;2023-06-22T04:59:24;6.60;;;6.10;;
12114;SDS011;6121;49.810;6.418;2023-06-22T05:01:53;6.88;;;6.38;;
12114;SDS011;6121;49.810;6.418;2023-06-22T05:04:20;6.70;;;6.20;;
12114;SDS011;6121;49.810;6.418;2023-06-22T05:06:48;6.63;;;6.13;;
12114;SDS011;6121;49.810;6.418;2023-06-22T05:09:14;6.35;;;5.85;;
12114;SDS011;6121;49.810;6.418;2023-06-22T05:11:40;6.43;;;5.93;;
12114;SDS011;6121;49.810;6.418;2023-06-22T05:14:06;6.78;;;6.28;;
12114;SDS011;6121;49.810;6.418;2023-06-22T05:16:32;6.28;;;5.78;;
12114;SDS011;6121;49.810;6.418;2023-06-22T05:18:58;6.40;;;5.90;;
12114;SDS011;6121;49.810;6.418;2023-06-22T05:21:25;6.10;;;5.70;;
12114;SDS011;6121;49.810;6.418;2023-06-22T05:23:52;7.00;;;6.50;;
12114;SDS011;6121;49.810;6.418;2023-06-22T05:26:19;6.75;;;6.25;;
12114;SDS011;6121;49.810;6.418;2023-06-22T05:28:46;6.07;;;5.67;;
12114;SDS011;6121;49.810;6.418;2023-06-22T05:31:13;6.72;;;6.22;;
12114;SDS011;6121;49.810;6.418;2023-06-22T05:33:40;6.95;;;6.45;;
12114;SDS011;6121;49.810;6.418;2023-06-22T05:36:06;6.60;;;6.10;;
12114;SDS011;6121;49.810;6.418;2023-06-22T05:38:33;6.20;;;5.80;;
12114;SDS011;6121;49.810;6.418;2023-06-22T05:40:59;6.65;;;6.15;;
12114;SDS011;6121;49.810;6.418;2023-06-22T05:43:24;6.35;;;5.88;;
12114;SDS011;6121;49.810;6.418;2023-06-22T05:45:50;6.33;;;5.83;;
12114;SDS011;6121;49.810;6.418;2023-06-22T05:48:16;6.00;;;5.60;;
12114;SDS011;6121;49.810;6.418;2023-06-22T05:50:42;8.10;;;7.50;;
12114;SDS011;6121;49.810;6.418;2023-06-22T05:53:08;6.60;;;6.10;;
12114;SDS011;6121;49.810;6.418;2023-06-22T05:55:34;6.70;;;6.20;;
12114;SDS011;6121;49.810;6.418;2023-06-22T05:58:00;6.60;;;6.10;;
12114;SDS011;6121;49.810;6.418;2023-06-22T06:00:25;6.57;;;6.07;;
12114;SDS011;6121;49.810;6.418;2023-06-22T06:02:51;6.93;;;6.43;;
12114;SDS011;6121;49.810;6.418;2023-06-22T06:05:17;6.80;;;6.30;;
12114;SDS011;6121;49.810;6.418;2023-06-22T06:07:44;7.00;;;6.50;;
12114;SDS011;6121;49.810;6.418;2023-06-22T06:10:10;7.10;;;6.60;;
12114;SDS011;6121;49.810;6.418;2023-06-22T06:12:36;6.60;;;6.13;;
12114;SDS011;6121;49.810;6.418;2023-06-22T06:15:03;7.68;;;7.07;;
12114;SDS011;6121;49.810;6.418;2023-06-22T06:17:30;7.68;;;7.10;;
12114;SDS011;6121;49.810;6.418;2023-06-22T06:19:56;7.10;;;6.60;;
12114;SDS011;6121;49.810;6.418;2023-06-22T06:22:22;6.68;;;6.18;;
12114;SDS011;6121;49.810;6.418;2023-06-22T06:24:49;8.55;;;7.95;;
12114;SDS011;6121;49.810;6.418;2023-06-22T06:27:15;8.48;;;7.88;;
12114;SDS011;6121;49.810;6.418;2023-06-22T06:29:43;7.10;;;6.60;;
12114;SDS011;6121;49.810;6.418;2023-06-22T06:32:11;7.05;;;6.55;;
12114;SDS011;6121;49.810;6.418;2023-06-22T06:34:37;7.93;;;7.32;;
12114;SDS011;6121;49.810;6.418;2023-06-22T06:37:03;7.37;;;6.87;;
12114;SDS011;6121;49.810;6.418;2023-06-22T06:39:29;6.88;;;6.38;;
12114;SDS011;6121;49.810;6.418;2023-06-22T06:41:55;7.17;;;6.67;;
12114;SDS011;6121;49.810;6.418;2023-06-22T06:44:20;6.85;;;6.35;;
12114;SDS011;6121;49.810;6.418;2023-06-22T06:46:46;7.97;;;7.37;;
12114;SDS011;6121;49.810;6.418;2023-06-22T06:49:12;7.07;;;6.57;;
12114;SDS011;6121;49.810;6.418;2023-06-22T06:51:38;6.43;;;6.03;;
12114;SDS011;6121;49.810;6.418;2023-06-22T06:54:04;7.35;;;6.85;;
12114;SDS011;6121;49.810;6.418;2023-06-22T06:56:30;6.97;;;6.47;;
12114;SDS011;6121;49.810;6.418;2023-06-22T06:58:58;7.15;;;6.65;;
12114;SDS011;6121;49.810;6.418;2023-06-22T07:01:24;6.75;;;6.25;;
12114;SDS011;6121;49.810;6.418;2023-06-22T07:03:50;6.83;;;6.33;;
12114;SDS011;6121;49.810;6.418;2023-06-22T07:06:16;6.60;;;6.18;;
12114;SDS011;6121;49.810;6.418;2023-06-22T07:08:42;6.80;;;6.30;;
12114;SDS011;6121;49.810;6.418;2023-06-22T07:11:08;6.97;;;6.47;;
12114;SDS011;6121;49.810;6.418;2023-06-22T07:13:33;7.20;;;6.70;;
12114;SDS011;6121;49.810;6.418;2023-06-22T07:15:59;7.43;;;6.93;;
12114;SDS011;6121;49.810;6.418;2023-06-22T07:18:25;6.50;;;6.03;;
12114;SDS011;6121;49.810;6.418;2023-06-22T07:20:51;6.72;;;6.22;;
12114;SDS011;6121;49.810;6.418;2023-06-22T07:23:17;6.93;;;6.43;;
12114;SDS011;6121;49.810;6.418;2023-06-22T07:25:43;6.75;;;6.25;;
12114;SDS011;6121;49.810;6.418;2023-06-22T07:28:09;7.13;;;6.63;;
12114;SDS011;6121;49.810;6.418;2023-06-22T07:30:35;6.97;;;6.47;;
12114;SDS011;6121;49.810;6.418;2023-06-22T07:33:01;6.78;;;6.28;;
12114;SDS011;6121;49.810;6.418;2023-06-22T07:35:29;6.75;;;6.25;;
12114;SDS011;6121;49.810;6.418;2023-06-22T07:37:56;6.72;;;6.22;;
12114;SDS011;6121;49.810;6.418;2023-06-22T07:40:21;7.10;;;6.60;;
12114;SDS011;6121;49.810;6.418;2023-06-22T07:42:47;7.50;;;7.00;;
12114;SDS011;6121;49.810;6.418;2023-06-22T07:45:13;6.90;;;6.40;;
12114;SDS011;6121;49.810;6.418;2023-06-22T07:47:39;6.90;;;6.40;;
12114;SDS011;6121;49.810;6.418;2023-06-22T07:50:05;7.13;;;6.63;;
12114;SDS011;6121;49.810;6.418;2023-06-22T07:52:31;7.10;;;6.60;;
12114;SDS011;6121;49.810;6.418;2023-06-22T07:54:57;7.20;;;6.70;;
12114;SDS011;6121;49.810;6.418;2023-06-22T07:57:23;7.03;;;6.53;;
12114;SDS011;6121;49.810;6.418;2023-06-22T07:59:57;7.00;;;6.50;;
12114;SDS011;6121;49.810;6.418;2023-06-22T08:02:24;6.43;;;6.00;;
12114;SDS011;6121;49.810;6.418;2023-06-22T08:04:50;6.45;;;6.03;;
12114;SDS011;6121;49.810;6.418;2023-06-22T08:07:16;8.00;;;7.43;;
12114;SDS011;6121;49.810;6.418;2023-06-22T08:09:46;7.00;;;6.50;;
12114;SDS011;6121;49.810;6.418;2023-06-22T08:12:13;6.93;;;6.43;;
12114;SDS011;6121;49.810;6.418;2023-06-22T08:14:41;6.68;;;6.18;;
12114;SDS011;6121;49.810;6.418;2023-06-22T08:17:08;7.63;;;7.13;;
12114;SDS011;6121;49.810;6.418;2023-06-22T08:19:34;7.23;;;6.73;;
12114;SDS011;6121;49.810;6.418;2023-06-22T08:22:00;6.45;;;6.05;;
12114;SDS011;6121;49.810;6.418;2023-06-22T08:24:26;8.00;;;7.40;;
12114;SDS011;6121;49.810;6.418;2023-06-22T08:26:55;7.35;;;6.85;;
12114;SDS011;6121;49.810;6.418;2023-06-22T08:29:21;6.85;;;6.35;;
12114;SDS011;6121;49.810;6.418;2023-06-22T08:31:47;6.80;;;6.30;;
12114;SDS011;6121;49.810;6.418;2023-06-22T08:34:13;7.47;;;6.97;;
12114;SDS011;6121;49.810;6.418;2023-06-22T08:36:39;7.90;;;7.30;;
12114;SDS011;6121;49.810;6.418;2023-06-22T08:39:10;8.07;;;7.47;;
12114;SDS011;6121;49.810;6.418;2023-06-22T08:41:35;7.40;;;6.90;;
12114;SDS011;6121;49.810;6.418;2023-06-22T08:44:01;6.18;;;5.78;;
12114;SDS011;6121;49.810;6.418;2023-06-22T08:46:29;6.40;;;6.00;;
12114;SDS011;6121;49.810;6.418;2023-06-22T08:48:59;6.93;;;6.43;;
12114;SDS011;6121;49.810;6.418;2023-06-22T08:51:25;6.43;;;6.03;;
12114;SDS011;6121;49.810;6.418;2023-06-22T08:53:51;7.10;;;6.60;;
12114;SDS011;6121;49.810;6.418;2023-06-22T08:56:17;6.50;;;6.10;;
12114;SDS011;6121;49.810;6.418;2023-06-22T08:58:43;7.10;;;6.60;;
12114;SDS011;6121;49.810;6.418;2023-06-22T09:01:09;6.27;;;5.87;;
12114;SDS011;6121;49.810;6.418;2023-06-22T09:03:35;6.78;;;6.30;;
12114;SDS011;6121;49.810;6.418;2023-06-22T09:06:02;8.68;;;8.07;;
12114;SDS011;6121;49.810;6.418;2023-06-22T09:08:28;6.47;;;6.07;;
12114;SDS011;6121;49.810;6.418;2023-06-22T09:10:54;6.80;;;6.30;;
12114;SDS011;6121;49.810;6.418;2023-06-22T09:13:20;6.30;;;5.90;;
12114;SDS011;6121;49.810;6.418;2023-06-22T09:15:47;6.72;;;6.25;;
12114;SDS011;6121;49.810;6.418;2023-06-22T09:18:13;7.10;;;6.60;;
12114;SDS011;6121;49.810;6.418;2023-06-22T09:20:39;6.85;;;6.35;;
12114;SDS011;6121;49.810;6.418;2023-06-22T09:23:05;6.78;;;6.28;;
12114;SDS011;6121;49.810;6.418;2023-06-22T09:25:31;7.27;;;6.77;;
12114;SDS011;6121;49.810;6.418;2023-06-22T09:27:56;6.55;;;6.15;;
12114;SDS011;6121;49.810;6.418;2023-06-22T09:30:22;6.77;;;6.27;;
12114;SDS011;6121;49.810;6.418;2023-06-22T09:32:48;6.93;;;6.43;;
12114;SDS011;6121;49.810;6.418;2023-06-22T09:35:14;6.78;;;6.28;;
12114;SDS011;6121;49.810;6.418;2023-06-22T09:37:40;7.40;;;6.90;;
12114;SDS011;6121;49.810;6.418;2023-06-22T09:40:06;6.68;;;6.25;;
12114;SDS011;6121;49.810;6.418;2023-06-22T09:42:35;6.55;;;6.15;;
12114;SDS011;6121;49.810;6.418;2023-06-22T09:45:01;6.43;;;6.03;;
12114;SDS011;6121;49.810;6.418;2023-06-22T09:47:27;7.53;;;7.03;;
12114;SDS011;6121;49.810;6.418;2023-06-22T09:49:54;6.80;;;6.30;;
12114;SDS011;6121;49.810;6.418;2023-06-22T09:52:21;7.30;;;6.80;;
12114;SDS011;6121;49.810;6.418;2023-06-22T09:54:47;6.50;;;6.10;;
12114;SDS011;6121;49.810;6.418;2023-06-22T09:57:13;7.05;;;6.55;;
12114;SDS011;6121;49.810;6.418;2023-06-22T09:59:39;6.72;;;6.22;;
12114;SDS011;6121;49.810;6.418;2023-06-22T10:02:05;6.25;;;5.85;;
12114;SDS011;6121;49.810;6.418;2023-06-22T10:04:33;7.47;;;6.97;;
12114;SDS011;6121;49.810;6.418;2023-06-22T10:06:59;7.07;;;6.57;;
12114;SDS011;6121;49.810;6.418;2023-06-22T10:09:25;6.78;;;6.28;;
12114;SDS011;6121;49.810;6.418;2023-06-22T10:11:51;6.80;;;6.30;;
12114;SDS011;6121;49.810;6.418;2023-06-22T10:14:16;6.95;;;6.45;;
12114;SDS011;6121;49.810;6.418;2023-06-22T10:16:42;6.87;;;6.37;;
12114;SDS011;6121;49.810;6.418;2023-06-22T10:19:08;7.13;;;6.63;;
12114;SDS011;6121;49.810;6.418;2023-06-22T10:21:34;6.65;;;6.18;;
12114;SDS011;6121;49.810;6.418;2023-06-22T10:24:00;7.22;;;6.72;;
12114;SDS011;6121;49.810;6.418;2023-06-22T10:26:32;7.03;;;6.53;;
12114;SDS011;6121;49.810;6.418;2023-06-22T10:28:58;7.00;;;6.50;;
12114;SDS011;6121;49.810;6.418;2023-06-22T10:31:25;6.82;;;6.32;;
12114;SDS011;6121;49.810;6.418;2023-06-22T10:33:51;7.38;;;6.88;;
12114;SDS011;6121;49.810;6.418;2023-06-22T10:36:16;6.83;;;6.33;;
12114;SDS011;6121;49.810;6.418;2023-06-22T10:38:42;8.63;;;8.02;;
12114;SDS011;6121;49.810;6.418;2023-06-22T10:41:08;6.90;;;6.40;;
12114;SDS011;6121;49.810;6.418;2023-06-22T10:43:34;6.90;;;6.40;;
12114;SDS011;6121;49.810;6.418;2023-06-22T10:45:59;7.28;;;6.78;;
12114;SDS011;6121;49.810;6.418;2023-06-22T10:48:25;6.83;;;6.33;;
12114;SDS011;6121;49.810;6.418;2023-06-22T10:50:51;6.95;;;6.45;;
12114;SDS011;6121;49.810;6.418;2023-06-22T10:53:18;7.00;;;6.50;;
12114;SDS011;6121;49.810;6.418;2023-06-22T10:55:44;7.38;;;6.88;;
12114;SDS011;6121;49.810;6.418;2023-06-22T10:58:10;6.95;;;6.45;;
12114;SDS011;6121;49.810;6.418;2023-06-22T11:00:36;7.65;;;7.15;;
12114;SDS011;6121;49.810;6.418;2023-06-22T11:03:02;7.50;;;7.00;;
12114;SDS011;6121;49.810;6.418;2023-06-22T11:05:28;6.95;;;6.45;;
12114;SDS011;6121;49.810;6.418;2023-06-22T11:07:53;7.18;;;6.68;;
12114;SDS011;6121;49.810;6.418;2023-06-22T11:10:19;7.25;;;6.75;;
12114;SDS011;6121;49.810;6.418;2023-06-22T11:12:45;7.90;;;7.40;;
12114;SDS011;6121;49.810;6.418;2023-06-22T11:15:11;6.57;;;6.15;;
12114;SDS011;6121;49.810;6.418;2023-06-22T11:17:37;7.18;;;6.68;;
12114;SDS011;6121;49.810;6.418;2023-06-22T11:20:03;6.50;;;6.10;;
12114;SDS011;6121;49.810;6.418;2023-06-22T11:22:36;6.97;;;6.47;;
12114;SDS011;6121;49.810;6.418;2023-06-22T11:25:04;7.78;;;7.28;;
12114;SDS011;6121;49.810;6.418;2023-06-22T11:27:31;7.47;;;6.97;;
12114;SDS011;6121;49.810;6.418;2023-06-22T11:29:57;6.07;;;5.67;;
12114;SDS011;6121;49.810;6.418;2023-06-22T11:32:22;7.07;;;6.57;;
12114;SDS011;6121;49.810;6.418;2023-06-22T11:34:48;6.57;;;6.17;;
12114;SDS011;6121;49.810;6.418;2023-06-22T11:37:15;7.18;;;6.68;;
12114;SDS011;6121;49.810;6.418;2023-06-22T11:39:41;6.72;;;6.25;;
12114;SDS011;6121;49.810;6.418;2023-06-22T11:42:07;6.80;;;6.30;;
12114;SDS011;6121;49.810;6.418;2023-06-22T11:44:34;6.85;;;6.35;;
12114;SDS011;6121;49.810;6.418;2023-06-22T11:47:00;6.28;;;5.88;;
12114;SDS011;6121;49.810;6.418;2023-06-22T11:49:26;6.50;;;6.10;;
12114;SDS011;6121;49.810;6.418;2023-06-22T11:51:52;6.95;;;6.45;;
12114;SDS011;6121;49.810;6.418;2023-06-22T11:54:18;6.53;;;6.10;;
12114;SDS011;6121;49.810;6.418;2023-06-22T11:56:44;6.93;;;6.43;;
12114;SDS011;6121;49.810;6.418;2023-06-22T11:59:10;7.82;;;7.32;;
12114;SDS011;6121;49.810;6.418;2023-06-22T12:01:36;6.40;;;6.00;;
12114;SDS011;6121;49.810;6.418;2023-06-22T12:04:02;6.37;;;5.97;;
12114;SDS011;6121;49.810;6.418;2023-06-22T12:06:31;6.43;;;6.03;;
12114;SDS011;6121;49.810;6.418;2023-06-22T12:08:57;6.97;;;6.47;;
12114;SDS011;6121;49.810;6.418;2023-06-22T12:11:23;7.22;;;6.72;;
12114;SDS011;6121;49.810;6.418;2023-06-22T12:13:49;6.78;;;6.35;;
12114;SDS011;6121;49.810;6.418;2023-06-22T12:16:15;6.50;;;6.10;;
12114;SDS011;6121;49.810;6.418;2023-06-22T12:18:41;6.97;;;6.47;;
12114;SDS011;6121;49.810;6.418;2023-06-22T12:21:07;6.40;;;6.00;;
12114;SDS011;6121;49.810;6.418;2023-06-22T12:23:33;6.80;;;6.35;;
12114;SDS011;6121;49.810;6.418;2023-06-22T12:25:59;6.65;;;6.25;;
12114;SDS011;6121;49.810;6.418;2023-06-22T12:28:26;6.90;;;6.40;;
12114;SDS011;6121;49.810;6.418;2023-06-22T12:30:52;6.40;;;6.00;;
12114;SDS011;6121;49.810;6.418;2023-06-22T12:33:17;6.87;;;6.43;;
12114;SDS011;6121;49.810;6.418;2023-06-22T12:35:46;6.22;;;5.82;;
12114;SDS011;6121;49.810;6.418;2023-06-22T12:38:14;6.45;;;6.05;;
12114;SDS011;6121;49.810;6.418;2023-06-22T12:40:40;7.83;;;7.23;;
12114;SDS011;6121;49.810;6.418;2023-06-22T12:43:05;7.45;;;6.90;;
12114;SDS011;6121;49.810;6.418;2023-06-22T12:45:32;7.35;;;6.85;;
12114;SDS011;6121;49.810;6.418;2023-06-22T12:47:59;6.88;;;6.38;;
12114;SDS011;6121;49.810;6.418;2023-06-22T12:50:26;7.10;;;6.60;;
12114;SDS011;6121;49.810;6.418;2023-06-22T12:52:51;6.95;;;6.45;;
12114;SDS011;6121;49.810;6.418;2023-06-22T12:55:17;7.07;;;6.57;;
12114;SDS011;6121;49.810;6.418;2023-06-22T12:57:43;7.00;;;6.50;;
12114;SDS011;6121;49.810;6.418;2023-06-22T13:00:09;7.30;;;6.70;;
12114;SDS011;6121;49.810;6.418;2023-06-22T13:02:35;7.20;;;6.65;;
12114;SDS011;6121;49.810;6.418;2023-06-22T13:05:02;7.57;;;6.97;;
12114;SDS011;6121;49.810;6.418;2023-06-22T13:07:30;7.65;;;7.05;;
12114;SDS011;6121;49.810;6.418;2023-06-22T13:09:56;7.63;;;7.03;;
12114;SDS011;6121;49.810;6.418;2023-06-22T13:12:22;7.07;;;6.57;;
12114;SDS011;6121;49.810;6.418;2023-06-22T13:14:48;7.40;;;6.80;;
12114;SDS011;6121;49.810;6.418;2023-06-22T13:17:14;7.68;;;7.07;;
12114;SDS011;6121;49.810;6.418;2023-06-22T13:19:40;7.70;;;7.10;;
12114;SDS011;6121;49.810;6.418;2023-06-22T13:22:09;7.45;;;6.85;;
12114;SDS011;6121;49.810;6.418;2023-06-22T13:24:50;7.70;;;7.10;;
12114;SDS011;6121;49.810;6.418;2023-06-22T13:27:16;7.50;;;6.90;;
12114;SDS011;6121;49.810;6.418;2023-06-22T13:29:42;7.33;;;6.73;;
12114;SDS011;6121;49.810;6.418;2023-06-22T13:32:08;7.60;;;7.00;;
12114;SDS011;6121;49.810;6.418;2023-06-22T13:34:33;8.88;;;8.18;;
12114;SDS011;6121;49.810;6.418;2023-06-22T13:36:59;7.87;;;7.27;;
12114;SDS011;6121;49.810;6.418;2023-06-22T13:39:25;7.40;;;6.80;;
12114;SDS011;6121;49.810;6.418;2023-06-22T13:41:51;7.53;;;6.93;;
12114;SDS011;6121;49.810;6.418;2023-06-22T13:44:17;7.72;;;7.13;;
12114;SDS011;6121;49.810;6.418;2023-06-22T13:46:43;8.23;;;7.53;;
12114;SDS011;6121;49.810;6.418;2023-06-22T13:49:09;8.95;;;8.25;;
12114;SDS011;6121;49.810;6.418;2023-06-22T13:51:36;7.53;;;6.93;;
12114;SDS011;6121;49.810;6.418;2023-06-22T13:54:01;7.78;;;7.18;;
12114;SDS011;6121;49.810;6.418;2023-06-22T13:56:27;7.50;;;6.90;;
12114;SDS011;6121;49.810;6.418;2023-06-22T13:58:53;7.35;;;6.75;;
12114;SDS011;6121;49.810;6.418;2023-06-22T14:01:19;7.47;;;6.88;;
12114;SDS011;6121;49.810;6.418;2023-06-22T14:03:46;7.72;;;7.13;;
12114;SDS011;6121;49.810;6.418;2023-06-22T14:06:13;7.78;;;7.15;;
12114;SDS011;6121;49.810;6.418;2023-06-22T14:08:39;7.53;;;6.93;;
12114;SDS011;6121;49.810;6.418;2023-06-22T14:11:05;7.73;;;7.10;;
12114;SDS011;6121;49.810;6.418;2023-06-22T14:13:30;7.38;;;6.78;;
12114;SDS011;6121;49.810;6.418;2023-06-22T14:15:56;7.87;;;7.27;;
12114;SDS011;6121;49.810;6.418;2023-06-22T14:18:23;7.50;;;6.90;;
12114;SDS011;6121;49.810;6.418;2023-06-22T14:20:49;7.70;;;7.10;;
12114;SDS011;6121;49.810;6.418;2023-06-22T14:23:15;7.22;;;6.63;;
12114;SDS011;6121;49.810;6.418;2023-06-22T14:25:40;7.97;;;7.27;;
12114;SDS011;6121;49.810;6.418;2023-06-22T14:28:06;7.35;;;6.75;;
12114;SDS011;6121;49.810;6.418;2023-06-22T14:30:32;8.00;;;7.30;;
12114;SDS011;6121;49.810;6.418;2023-06-22T14:32:58;8.03;;;7.37;;
12114;SDS011;6121;49.810;6.418;2023-06-22T14:35:23;9.15;;;8.35;;
12114;SDS011;6121;49.810;6.418;2023-06-22T14:37:49;7.50;;;6.90;;
12114;SDS011;6121;49.810;6.418;2023-06-22T14:40:15;8.05;;;7.35;;
12114;SDS011;6121;49.810;6.418;2023-06-22T14:42:41;7.80;;;7.18;;
12114;SDS011;6121;49.810;6.418;2023-06-22T14:45:07;7.75;;;7.15;;
12114;SDS011;6121;49.810;6.418;2023-06-22T14:47:33;8.15;;;7.45;;
12114;SDS011;6121;49.810;6.418;2023-06-22T14:49:59;7.20;;;6.60;;
12114;SDS011;6121;49.810;6.418;2023-06-22T14:52:26;7.45;;;6.85;;
12114;SDS011;6121;49.810;6.418;2023-06-22T14:55:01;7.03;;;6.43;;
12114;SDS011;6121;49.810;6.418;2023-06-22T14:57:27;8.80;;;8.10;;
12114;SDS011;6121;49.810;6.418;2023-06-22T14:59:53;7.45;;;6.85;;